Time;durP1;ratioP1;P1;durP2;ratioP2;P2;SDS_P1;SDS_P2;PMS_P1;PMS_P2;Temp;Humidity;BMP_temperature;BMP_pressure;BME280_temperature;BME280_humidity;BME280_pressure;Samples;Min_cycle;Max_cycle;Signal;HPM_P1;HPM_P2
2022/03/06 00:01:33;;;;;;;29.17;14.40;;;;;;;0.79;71.58;102220.19;5069351;28;20078;-74
2022/03/06 00:03:59;;;;;;;29.45;14.57;;;;;;;0.79;71.46;102224.59;5069455;28;20025;-74
2022/03/06 00:06:24;;;;;;;26.73;13.27;;;;;;;0.71;71.56;102216.34;5069378;28;20086;-74
2022/03/06 00:08:50;;;;;;;32.58;17.98;;;;;;;0.75;71.31;102236.22;5069390;28;20105;-74
2022/03/06 00:11:16;;;;;;;32.85;14.48;;;;;;;0.71;71.60;102239.97;5069324;28;20052;-74
2022/03/06 00:13:41;;;;;;;29.73;14.35;;;;;;;0.65;71.77;102235.97;5069262;28;20036;-74
2022/03/06 00:16:06;;;;;;;32.38;14.15;;;;;;;0.67;71.51;102236.72;5068007;28;20029;-74
2022/03/06 00:18:35;;;;;;;32.28;14.88;;;;;;;0.63;71.67;102241.31;5069356;28;20480;-74
2022/03/06 00:21:00;;;;;;;31.50;15.20;;;;;;;0.60;71.72;102233.66;5072175;28;20034;-74
2022/03/06 00:23:26;;;;;;;29.73;15.57;;;;;;;0.57;71.52;102243.50;5073252;28;20099;-74
2022/03/06 00:25:51;;;;;;;29.85;13.15;;;;;;;0.47;71.89;102232.72;5073423;28;20028;-74
2022/03/06 00:28:16;;;;;;;29.27;13.80;;;;;;;0.54;71.95;102241.06;5073342;28;20119;-74
2022/03/06 00:30:42;;;;;;;32.90;15.00;;;;;;;0.49;71.82;102238.72;5073254;28;20037;-74
2022/03/06 00:33:07;;;;;;;27.95;12.77;;;;;;;0.47;72.14;102237.13;5073145;28;20032;-74
2022/03/06 00:35:33;;;;;;;30.73;13.43;;;;;;;0.49;71.64;102246.59;5071773;28;20028;-74
2022/03/06 00:38:00;;;;;;;34.50;16.85;;;;;;;0.52;71.79;102251.63;5072968;28;20049;-74
2022/03/06 00:40:26;;;;;;;28.98;12.80;;;;;;;0.52;71.55;102249.03;5073105;28;20066;-74
2022/03/06 00:42:52;;;;;;;28.77;13.13;;;;;;;0.48;72.07;102252.78;5072878;28;20036;-74
2022/03/06 00:45:18;;;;;;;31.65;15.77;;;;;;;0.46;71.75;102256.44;5072564;28;20135;-74
2022/03/06 00:47:43;;;;;;;33.28;13.93;;;;;;;0.41;72.40;102262.81;5072301;28;20033;-75
2022/03/06 00:50:09;;;;;;;29.15;14.32;;;;;;;0.41;72.23;102261.97;5072236;28;20075;-74
2022/03/06 00:52:35;;;;;;;28.15;13.18;;;;;;;0.39;72.14;102264.72;5072554;28;20083;-74
2022/03/06 00:55:00;;;;;;;29.65;15.25;;;;;;;0.34;72.20;102258.91;5072538;28;20028;-74
2022/03/06 00:57:25;;;;;;;30.17;14.30;;;;;;;0.37;71.94;102268.38;5072622;28;20043;-74
2022/03/06 00:59:51;;;;;;;30.55;14.57;;;;;;;0.31;72.50;102259.06;5072191;28;20024;-74
2022/03/06 01:02:16;;;;;;;32.13;14.15;;;;;;;0.27;72.96;102262.84;5072631;28;20032;-74
2022/03/06 01:04:41;;;;;;;25.52;13.85;;;;;;;0.19;73.05;102265.09;5072682;28;20055;-74
2022/03/06 01:07:07;;;;;;;27.17;13.55;;;;;;;0.14;73.28;102267.16;5071176;28;20031;-74
2022/03/06 01:09:33;;;;;;;26.45;13.43;;;;;;;0.07;73.30;102271.91;5072389;28;20086;-74
2022/03/06 01:11:58;;;;;;;30.83;13.98;;;;;;;0.08;72.94;102276.25;5072415;28;20143;-74
2022/03/06 01:14:24;;;;;;;27.88;13.45;;;;;;;0.03;73.60;102270.44;5072734;28;20090;-74
2022/03/06 01:16:50;;;;;;;32.92;14.98;;;;;;;0.01;73.74;102279.34;5072178;28;20094;-74
2022/03/06 01:19:16;;;;;;;30.42;15.80;;;;;;;0.01;73.91;102277.53;5072266;28;20028;-74
2022/03/06 01:21:41;;;;;;;28.85;14.80;;;;;;;-0.10;74.18;102277.38;5071032;28;20578;-74
2022/03/06 01:24:07;;;;;;;36.55;15.98;;;;;;;-0.12;74.50;102280.06;5072168;28;20025;-74
2022/03/06 01:26:32;;;;;;;29.73;17.52;;;;;;;-0.13;74.31;102277.53;5071957;28;20082;-74
2022/03/06 01:28:58;;;;;;;32.60;14.95;;;;;;;-0.15;74.78;102274.16;5071847;28;20040;-74
2022/03/06 01:31:23;;;;;;;32.28;16.45;;;;;;;-0.18;75.40;102277.81;5054313;28;20028;-74
2022/03/06 01:33:48;;;;;;;29.65;14.57;;;;;;;-0.23;75.41;102291.19;5072094;28;20028;-74
2022/03/06 01:36:14;;;;;;;35.13;16.10;;;;;;;-0.26;75.59;102288.75;5071748;28;20500;-74
2022/03/06 01:38:39;;;;;;;29.73;14.65;;;;;;;-0.36;75.93;102282.38;5072003;28;20407;-74
2022/03/06 01:41:05;;;;;;;29.45;13.57;;;;;;;-0.36;75.67;102281.53;5071971;28;20033;-74
2022/03/06 01:43:30;;;;;;;32.47;13.95;;;;;;;-0.31;75.88;102288.19;5070402;28;20039;-74
2022/03/06 01:45:56;;;;;;;31.35;14.45;;;;;;;-0.34;75.64;102279.63;5071810;28;20024;-74
2022/03/06 01:48:21;;;;;;;33.35;13.80;;;;;;;-0.30;76.27;102283.78;5071282;28;20495;-74
2022/03/06 01:50:46;;;;;;;29.40;15.55;;;;;;;-0.36;76.02;102278.91;5071260;28;20036;-74
2022/03/06 01:53:12;;;;;;;30.40;14.75;;;;;;;-0.37;75.97;102285.06;5070194;28;20102;-74
2022/03/06 01:55:39;;;;;;;27.73;12.38;;;;;;;-0.39;76.63;102287.78;5071810;28;20411;-75
2022/03/06 01:58:07;;;;;;;30.52;12.82;;;;;;;-0.41;76.05;102280.94;5070225;28;20039;-75
2022/03/06 02:00:37;;;;;;;31.40;15.82;;;;;;;-0.45;76.79;102275.91;5070860;28;20033;-74
2022/03/06 02:03:03;;;;;;;32.53;17.08;;;;;;;-0.48;76.82;102275.22;5071064;28;20037;-74
2022/03/06 02:05:29;;;;;;;31.48;15.52;;;;;;;-0.52;76.66;102277.19;5071469;28;20024;-74
2022/03/06 02:07:54;;;;;;;31.83;14.60;;;;;;;-0.50;76.65;102284.94;5070068;28;20571;-74
2022/03/06 02:10:20;;;;;;;28.15;14.77;;;;;;;-0.54;76.98;102294.75;5071447;28;20032;-74
2022/03/06 02:12:46;;;;;;;26.65;13.02;;;;;;;-0.57;76.98;102287.09;5066728;28;20067;-74
2022/03/06 02:15:14;;;;;;;27.80;13.52;;;;;;;-0.60;76.93;102287.25;5071324;28;20064;-74
2022/03/06 02:17:39;;;;;;;27.55;14.43;;;;;;;-0.65;77.37;102286.69;5071093;28;20026;-74
2022/03/06 02:20:14;;;;;;;30.20;14.15;;;;;;;-0.71;78.14;102287.00;5069791;28;20029;-74
2022/03/06 02:22:42;;;;;;;30.42;13.98;;;;;;;-0.75;77.80;102278.50;5071153;28;20143;-74
2022/03/06 02:25:12;;;;;;;26.48;12.80;;;;;;;-0.71;77.45;102292.25;5070774;28;20035;-74
2022/03/06 02:27:37;;;;;;;26.92;14.07;;;;;;;-0.78;77.88;102289.16;5071028;28;20484;-74
2022/03/06 02:30:08;;;;;;;27.15;13.27;;;;;;;-0.75;78.89;102302.06;5053059;28;20043;-75
2022/03/06 02:32:35;;;;;;;30.25;15.45;;;;;;;-0.79;78.25;102294.47;5070536;28;20024;-74
2022/03/06 02:35:01;;;;;;;32.38;15.57;;;;;;;-0.81;78.99;102302.44;5070477;28;20501;-76
2022/03/06 02:37:26;;;;;;;28.52;12.23;;;;;;;-0.81;78.52;102312.03;5070326;28;20079;-74
2022/03/06 02:39:52;;;;;;;30.23;15.55;;;;;;;-0.85;78.52;102308.75;5070649;28;20502;-74
2022/03/06 02:42:32;;;;;;;26.58;12.15;;;;;;;-0.94;79.46;102290.97;5070190;28;20028;-74
2022/03/06 02:44:59;;;;;;;30.52;13.70;;;;;;;-0.86;79.32;102308.84;5070588;28;20032;-74
2022/03/06 02:47:25;;;;;;;29.48;15.70;;;;;;;-0.90;78.57;102300.31;5070516;28;20075;-74
2022/03/06 02:49:51;;;;;;;27.25;13.23;;;;;;;-0.85;79.27;102306.16;5070016;28;20028;-74
2022/03/06 02:52:16;;;;;;;27.15;12.50;;;;;;;-0.89;79.14;102302.03;5068950;28;20032;-76
2022/03/06 02:54:42;;;;;;;29.27;14.73;;;;;;;-0.91;79.80;102302.09;5069980;28;20467;-74
2022/03/06 02:57:07;;;;;;;24.92;10.95;;;;;;;-0.88;79.45;102311.56;5069277;28;20511;-74
2022/03/06 02:59:33;;;;;;;24.40;12.50;;;;;;;-0.90;79.58;102306.41;5069042;28;20444;-74
2022/03/06 03:01:59;;;;;;;26.00;13.02;;;;;;;-0.90;79.01;102308.19;5070332;28;20101;-74
2022/03/06 03:04:25;;;;;;;25.20;12.60;;;;;;;-0.97;79.34;102310.31;5070182;28;20402;-76
2022/03/06 03:06:51;;;;;;;27.40;11.98;;;;;;;-0.93;79.69;102310.97;5070150;28;20024;-76
2022/03/06 03:09:19;;;;;;;26.75;13.52;;;;;;;-0.95;80.14;102321.50;5070188;28;20119;-74
2022/03/06 03:11:46;;;;;;;26.67;12.95;;;;;;;-0.98;79.69;102311.22;5070159;28;20108;-76
2022/03/06 03:14:12;;;;;;;35.05;14.35;;;;;;;-0.98;80.08;102308.59;5070084;28;20024;-74
2022/03/06 03:16:38;;;;;;;25.33;11.98;;;;;;;-0.96;79.88;102314.59;5052312;28;20115;-74
2022/03/06 03:19:03;;;;;;;25.75;12.38;;;;;;;-0.93;79.60;102329.31;5070054;28;20499;-76
2022/03/06 03:21:28;;;;;;;28.50;13.30;;;;;;;-0.97;79.69;102314.69;5069999;28;20034;-75
2022/03/06 03:23:54;;;;;;;23.23;11.07;;;;;;;-0.91;79.06;102320.44;5070019;28;20399;-75
2022/03/06 03:26:20;;;;;;;24.60;11.73;;;;;;;-0.92;79.21;102320.50;5069610;28;20036;-74
2022/03/06 03:28:45;;;;;;;28.42;13.82;;;;;;;-0.91;79.65;102316.97;5071069;28;20020;-75
2022/03/06 03:31:10;;;;;;;29.50;12.68;;;;;;;-1.03;79.39;102308.00;5069607;28;20024;-74
2022/03/06 03:33:36;;;;;;;30.67;13.70;;;;;;;-1.00;79.77;102305.22;5068129;28;20027;-76
2022/03/06 03:36:02;;;;;;;29.25;12.45;;;;;;;-1.01;79.00;102311.41;5069680;28;20461;-76
2022/03/06 03:38:27;;;;;;;29.65;12.30;;;;;;;-0.92;79.17;102315.25;5069711;28;20050;-74
2022/03/06 03:40:53;;;;;;;26.35;14.38;;;;;;;-0.96;78.96;102319.00;5069656;28;20383;-74
2022/03/06 03:43:18;;;;;;;30.13;13.15;;;;;;;-1.02;80.13;102316.69;5069437;28;20033;-74
2022/03/06 03:45:44;;;;;;;26.70;13.40;;;;;;;-1.04;80.30;102326.44;5069639;28;20028;-74
2022/03/06 03:48:09;;;;;;;29.92;14.20;;;;;;;-1.09;80.60;102310.16;5069197;28;20119;-74
2022/03/06 03:50:35;;;;;;;28.80;14.27;;;;;;;-1.11;80.21;102318.06;5069295;28;20369;-77
2022/03/06 03:53:00;;;;;;;28.58;11.77;;;;;;;-1.07;80.40;102323.97;5069274;28;20089;-76
2022/03/06 03:55:25;;;;;;;26.92;12.63;;;;;;;-1.06;80.26;102325.69;5068160;28;20036;-76
2022/03/06 03:57:51;;;;;;;22.65;10.70;;;;;;;-1.09;79.63;102324.06;5069622;28;20044;-76
2022/03/06 04:00:16;;;;;;;31.65;15.20;;;;;;;-1.10;80.42;102325.00;5069584;28;20047;-75
2022/03/06 04:02:41;;;;;;;24.52;12.38;;;;;;;-1.13;80.14;102325.16;5068200;28;20570;-76
2022/03/06 04:05:08;;;;;;;22.73;11.73;;;;;;;-1.18;80.33;102328.03;5069356;28;20033;-76
2022/03/06 04:07:33;;;;;;;28.50;12.55;;;;;;;-1.16;80.23;102327.94;5069162;28;20024;-76
2022/03/06 04:09:58;;;;;;;26.13;11.43;;;;;;;-1.24;80.74;102336.22;5069286;28;20043;-74
2022/03/06 04:12:24;;;;;;;28.40;14.38;;;;;;;-1.20;80.19;102332.50;5069500;28;20074;-76
2022/03/06 04:14:49;;;;;;;24.50;12.02;;;;;;;-1.24;80.46;102341.44;5069372;28;20039;-76
2022/03/06 04:17:14;;;;;;;26.30;12.32;;;;;;;-1.24;80.64;102338.00;5068069;28;20035;-76
2022/03/06 04:19:40;;;;;;;23.88;12.10;;;;;;;-1.24;80.76;102345.84;5069345;28;20028;-76
2022/03/06 04:22:05;;;;;;;27.02;12.23;;;;;;;-1.35;80.57;102336.78;5069364;28;20032;-76
2022/03/06 04:24:31;;;;;;;29.85;14.43;;;;;;;-1.25;80.16;102349.41;5068929;28;20935;-76
2022/03/06 04:26:56;;;;;;;32.40;16.92;;;;;;;-1.29;80.55;102350.47;5068974;28;20101;-76
2022/03/06 04:29:21;;;;;;;23.98;11.35;;;;;;;-1.37;80.42;102343.03;5068019;28;20086;-76
2022/03/06 04:31:47;;;;;;;25.98;12.73;;;;;;;-1.34;80.49;102348.09;5069199;28;20032;-76
2022/03/06 04:34:12;;;;;;;29.77;13.27;;;;;;;-1.36;81.03;102353.44;5069057;28;20037;-76
2022/03/06 04:36:38;;;;;;;26.95;15.30;;;;;;;-1.38;81.27;102364.91;5068884;28;20102;-74
2022/03/06 04:39:04;;;;;;;23.40;10.77;;;;;;;-1.34;80.65;102359.44;5069030;28;20037;-74
2022/03/06 04:41:30;;;;;;;27.75;12.50;;;;;;;-1.38;81.35;102362.28;5069217;28;20059;-76
2022/03/06 04:43:55;;;;;;;27.65;13.60;;;;;;;-1.43;81.32;102359.06;5069181;28;20068;-76
2022/03/06 04:46:21;;;;;;;28.55;12.20;;;;;;;-1.41;80.84;102365.06;5069238;28;20029;-76
2022/03/06 04:48:46;;;;;;;26.60;11.98;;;;;;;-1.51;80.81;102363.88;5067801;28;20048;-76
2022/03/06 04:51:12;;;;;;;24.40;12.68;;;;;;;-1.45;80.76;102379.25;5067858;28;20029;-76
2022/03/06 04:53:37;;;;;;;28.98;11.85;;;;;;;-1.52;80.81;102372.63;5068365;28;20035;-76
2022/03/06 04:56:03;;;;;;;27.85;12.48;;;;;;;-1.46;80.71;102381.00;5068980;28;20360;-74
2022/03/06 04:58:29;;;;;;;19.08;9.05;;;;;;;-1.47;80.66;102386.31;5067451;28;20092;-76
2022/03/06 05:00:55;;;;;;;24.38;13.57;;;;;;;-1.50;81.40;102382.09;5051022;28;20032;-74
2022/03/06 05:03:21;;;;;;;23.48;11.52;;;;;;;-1.50;81.28;102387.31;5068884;28;20044;-74
2022/03/06 05:05:46;;;;;;;23.90;11.27;;;;;;;-1.51;81.36;102390.03;5069714;28;20058;-74
2022/03/06 05:08:11;;;;;;;28.45;15.55;;;;;;;-1.55;81.62;102399.78;5072674;28;20055;-76
2022/03/06 05:10:37;;;;;;;26.50;12.13;;;;;;;-1.62;81.28;102398.44;5072530;28;20129;-75
2022/03/06 05:13:02;;;;;;;27.48;15.25;;;;;;;-1.62;81.48;102399.28;5071112;28;20136;-76
2022/03/06 05:15:28;;;;;;;24.20;11.88;;;;;;;-1.67;81.48;102395.22;5071310;28;20032;-74
2022/03/06 05:17:53;;;;;;;26.80;14.15;;;;;;;-1.63;81.55;102400.19;5055589;28;20446;-74
2022/03/06 05:20:18;;;;;;;23.30;12.23;;;;;;;-1.72;81.40;102392.84;5071986;28;20039;-76
2022/03/06 05:22:44;;;;;;;25.30;11.70;;;;;;;-1.66;81.82;102408.19;5072189;28;20539;-74
2022/03/06 05:25:10;;;;;;;27.02;13.07;;;;;;;-1.62;81.51;102406.28;5072299;28;20052;-74
2022/03/06 05:27:36;;;;;;;28.48;15.57;;;;;;;-1.57;80.92;102409.50;5072107;28;20059;-74
2022/03/06 05:30:04;;;;;;;27.35;12.95;;;;;;;-1.62;81.61;102417.59;5072075;28;20021;-74
2022/03/06 05:32:29;;;;;;;26.25;13.15;;;;;;;-1.67;81.91;102408.28;5071872;28;20032;-74
2022/03/06 05:34:54;;;;;;;25.85;14.38;;;;;;;-1.67;81.54;102410.91;5071857;28;20025;-76
2022/03/06 05:37:20;;;;;;;27.00;14.68;;;;;;;-1.60;81.21;102423.59;5070565;28;20072;-74
2022/03/06 05:39:45;;;;;;;24.60;12.20;;;;;;;-1.62;81.82;102417.59;5071970;28;20426;-74
2022/03/06 05:42:11;;;;;;;23.95;10.77;;;;;;;-1.63;81.88;102413.28;5071877;28;20028;-76
2022/03/06 05:44:36;;;;;;;22.95;12.25;;;;;;;-1.62;81.69;102419.38;5071908;28;20136;-76
2022/03/06 05:47:01;;;;;;;26.00;12.50;;;;;;;-1.59;81.27;102424.44;5054121;28;20083;-76
2022/03/06 05:49:27;;;;;;;26.23;14.43;;;;;;;-1.58;81.12;102433.97;5071857;28;20380;-74
2022/03/06 05:51:52;;;;;;;25.02;11.23;;;;;;;-1.63;80.79;102425.50;5071711;28;20025;-74
2022/03/06 05:54:18;;;;;;;24.77;12.00;;;;;;;-1.63;81.00;102426.34;5070116;28;20391;-74
2022/03/06 05:56:43;;;;;;;23.92;13.10;;;;;;;-1.73;81.49;102411.19;5071564;28;20453;-74
2022/03/06 05:59:09;;;;;;;24.30;11.82;;;;;;;-1.68;81.56;102425.72;5071466;28;20357;-75
2022/03/06 06:01:34;;;;;;;21.80;11.80;;;;;;;-1.68;81.05;102430.13;5071493;28;20044;-75
2022/03/06 06:04:00;;;;;;;22.55;11.75;;;;;;;-1.74;81.12;102430.44;5071469;28;20039;-74
2022/03/06 06:06:27;;;;;;;21.60;11.68;;;;;;;-1.71;81.03;102441.59;5071533;28;20376;-74
2022/03/06 06:08:53;;;;;;;25.25;14.02;;;;;;;-1.71;81.34;102445.97;5071421;28;20036;-76
2022/03/06 06:11:19;;;;;;;27.02;13.38;;;;;;;-1.74;81.36;102452.22;5069908;28;20039;-74
2022/03/06 06:13:44;;;;;;;22.70;12.35;;;;;;;-1.75;81.99;102445.28;5070864;28;20032;-75
2022/03/06 06:16:10;;;;;;;20.92;11.57;;;;;;;-1.69;81.46;102452.00;5070648;28;20041;-74
2022/03/06 06:18:35;;;;;;;23.27;12.77;;;;;;;-1.77;81.50;102445.38;5070160;28;20039;-74
2022/03/06 06:21:01;;;;;;;21.67;10.73;;;;;;;-1.72;81.19;102446.91;5071162;28;20114;-75
2022/03/06 06:23:26;;;;;;;25.20;12.88;;;;;;;-1.68;81.61;102456.28;5070973;28;20039;-75
2022/03/06 06:25:52;;;;;;;24.77;12.75;;;;;;;-1.77;81.23;102453.22;5070864;28;20060;-75
2022/03/06 06:28:17;;;;;;;36.00;12.27;;;;;;;-1.72;81.08;102460.00;5070672;28;20483;-74
2022/03/06 06:30:43;;;;;;;34.22;13.80;;;;;;;-1.72;81.28;102467.84;5070952;28;20379;-74
2022/03/06 06:33:09;;;;;;;24.30;12.25;;;;;;;-1.69;81.58;102467.69;5070872;28;20039;-75
2022/03/06 06:35:34;;;;;;;21.25;10.43;;;;;;;-1.75;82.03;102466.22;5069465;28;20024;-74
2022/03/06 06:38:03;;;;;;;24.48;13.10;;;;;;;-1.68;81.31;102469.34;5069401;28;20056;-75
2022/03/06 06:40:29;;;;;;;25.73;13.40;;;;;;;-1.74;81.57;102461.84;5070688;28;20029;-74
2022/03/06 06:42:55;;;;;;;25.67;13.73;;;;;;;-1.68;81.13;102485.06;5070769;28;20039;-74
2022/03/06 06:45:20;;;;;;;24.45;13.75;;;;;;;-1.70;81.03;102481.66;5069378;28;20486;-75
2022/03/06 06:47:46;;;;;;;26.25;12.90;;;;;;;-1.65;81.24;102490.13;5070614;28;20043;-75
2022/03/06 06:50:11;;;;;;;26.42;13.07;;;;;;;-1.59;81.36;102479.38;5070628;28;20483;-75
2022/03/06 06:52:37;;;;;;;24.25;12.68;;;;;;;-1.48;80.87;102484.91;5070555;28;20174;-74
2022/03/06 06:55:04;;;;;;;28.67;14.00;;;;;;;-1.38;81.31;102491.38;5070398;28;20036;-74
2022/03/06 06:57:29;;;;;;;25.42;13.50;;;;;;;-1.11;80.20;102494.31;5070041;28;20532;-75
2022/03/06 06:59:55;;;;;;;28.30;14.35;;;;;;;-0.99;79.32;102482.38;5070028;28;20035;-74
2022/03/06 07:02:20;;;;;;;23.17;11.85;;;;;;;-1.02;78.71;102495.63;5070079;28;20055;-75
2022/03/06 07:04:46;;;;;;;25.35;13.32;;;;;;;-0.95;78.84;102494.34;5070148;28;20063;-74
2022/03/06 07:07:11;;;;;;;27.17;13.85;;;;;;;-1.00;78.80;102501.59;5069989;28;20024;-74
2022/03/06 07:09:37;;;;;;;23.33;11.30;;;;;;;-1.06;79.08;102514.19;5070101;28;20025;-74
2022/03/06 07:12:03;;;;;;;24.02;13.00;;;;;;;-1.17;79.53;102496.41;5070078;28;20036;-74
2022/03/06 07:14:29;;;;;;;21.98;12.00;;;;;;;-1.18;79.71;102497.31;5070126;28;20039;-74
2022/03/06 07:16:54;;;;;;;25.83;13.23;;;;;;;-1.18;80.32;102503.44;5068794;28;20725;-74
2022/03/06 07:19:19;;;;;;;24.75;12.05;;;;;;;-1.23;80.27;102494.97;5069984;28;20032;-74
2022/03/06 07:21:45;;;;;;;25.13;12.32;;;;;;;-1.11;79.85;102519.66;5069889;28;20032;-74
2022/03/06 07:24:10;;;;;;;25.58;12.55;;;;;;;-1.01;79.76;102520.03;5052243;28;20107;-75
2022/03/06 07:26:36;;;;;;;25.98;13.52;;;;;;;-0.96;79.71;102518.84;5068386;28;20123;-74
2022/03/06 07:29:02;;;;;;;27.50;14.77;;;;;;;-0.90;79.18;102522.94;5069970;28;20031;-74
2022/03/06 07:31:27;;;;;;;20.45;9.75;;;;;;;-0.95;79.38;102506.59;5069566;28;20457;-74
2022/03/06 07:33:53;;;;;;;23.40;10.88;;;;;;;-0.85;79.67;102523.53;5068368;28;20064;-74
2022/03/06 07:36:18;;;;;;;26.38;12.52;;;;;;;-0.84;79.68;102519.97;5069562;28;20111;-74
2022/03/06 07:38:43;;;;;;;21.85;10.70;;;;;;;-0.75;78.45;102529.13;5068451;28;20044;-75
2022/03/06 07:41:09;;;;;;;22.17;10.55;;;;;;;-0.77;79.00;102523.97;5069657;28;20056;-74
2022/03/06 07:43:35;;;;;;;22.02;11.00;;;;;;;-0.55;78.22;102549.88;5068192;28;20024;-74
2022/03/06 07:46:01;;;;;;;23.38;11.23;;;;;;;-0.41;78.83;102536.03;5069438;28;20020;-74
2022/03/06 07:48:27;;;;;;;21.77;10.02;;;;;;;-0.27;77.58;102543.13;5068224;28;20085;-75
2022/03/06 07:50:52;;;;;;;32.75;13.57;;;;;;;-0.10;77.15;102550.91;5069744;28;20480;-75
2022/03/06 07:53:17;;;;;;;23.42;13.20;;;;;;;-0.12;76.63;102550.16;5068145;28;20438;-75
2022/03/06 07:55:43;;;;;;;21.10;9.93;;;;;;;-0.05;76.85;102558.53;5068116;28;20033;-75
2022/03/06 07:58:08;;;;;;;20.08;11.50;;;;;;;0.03;76.48;102555.47;5068253;28;20044;-75
2022/03/06 08:00:33;;;;;;;18.67;10.55;;;;;;;0.31;76.67;102552.97;5067931;28;20083;-75
2022/03/06 08:02:59;;;;;;;18.52;10.57;;;;;;;0.65;74.95;102558.91;5069309;28;20031;-75
2022/03/06 08:05:24;;;;;;;21.67;10.40;;;;;;;0.79;74.39;102556.31;5069416;28;20050;-75
2022/03/06 08:07:49;;;;;;;23.63;11.25;;;;;;;0.84;74.15;102556.06;5069419;28;20032;-74
2022/03/06 08:10:15;;;;;;;23.55;11.98;;;;;;;1.07;73.53;102562.53;5068055;28;20041;-75
2022/03/06 08:12:43;;;;;;;22.67;12.00;;;;;;;0.98;72.64;102555.22;5069346;28;20529;-75
2022/03/06 08:15:09;;;;;;;26.85;11.77;;;;;;;1.01;74.03;102563.75;5069246;28;20028;-77
2022/03/06 08:17:35;;;;;;;23.30;11.50;;;;;;;1.07;73.35;102562.53;5069334;28;20028;-75
2022/03/06 08:20:01;;;;;;;22.25;11.10;;;;;;;1.26;73.70;102581.53;5069292;28;20077;-75
2022/03/06 08:22:27;;;;;;;23.90;12.63;;;;;;;1.28;73.10;102573.53;5069141;28;20115;-75
2022/03/06 08:24:54;;;;;;;21.02;9.68;;;;;;;1.31;73.43;102560.22;5069158;28;20031;-75
2022/03/06 08:27:20;;;;;;;24.67;12.80;;;;;;;1.46;72.50;102574.19;5068781;28;20032;-75
2022/03/06 08:29:45;;;;;;;25.38;12.00;;;;;;;1.26;73.16;102575.44;5067833;28;20047;-75
2022/03/06 08:32:11;;;;;;;21.77;11.90;;;;;;;1.11;73.38;102579.81;5069210;28;20029;-75
2022/03/06 08:34:36;;;;;;;22.50;10.70;;;;;;;0.97;73.87;102578.03;5069139;28;20024;-75
2022/03/06 08:37:02;;;;;;;24.15;12.88;;;;;;;0.92;75.13;102587.09;5069003;28;20434;-75
2022/03/06 08:39:27;;;;;;;19.15;11.02;;;;;;;0.93;73.78;102586.19;5067816;28;20033;-75
2022/03/06 08:41:53;;;;;;;21.75;12.20;;;;;;;0.89;74.10;102596.00;5071564;28;20059;-75
2022/03/06 08:44:18;;;;;;;27.20;13.38;;;;;;;0.88;74.54;102595.16;5072759;28;20028;-74
2022/03/06 08:46:44;;;;;;;21.75;10.88;;;;;;;0.96;74.30;102592.09;5054942;28;20472;-74
2022/03/06 08:49:09;;;;;;;24.40;11.95;;;;;;;1.01;74.29;102603.16;5071634;28;20549;-74
2022/03/06 08:51:35;;;;;;;26.65;12.77;;;;;;;1.09;74.65;102589.56;5072835;28;20139;-74
2022/03/06 08:54:00;;;;;;;26.08;13.13;;;;;;;1.07;74.24;102580.94;5071336;28;20031;-74
2022/03/06 08:56:26;;;;;;;18.52;9.75;;;;;;;1.17;73.82;102578.59;5072446;28;20495;-74
2022/03/06 08:58:51;;;;;;;24.33;12.48;;;;;;;1.27;73.88;102585.84;5072651;28;20032;-74
2022/03/06 09:01:17;;;;;;;24.40;11.82;;;;;;;1.39;74.24;102596.53;5071306;28;20024;-74
2022/03/06 09:03:42;;;;;;;23.15;13.27;;;;;;;1.44;74.08;102600.59;5072151;28;20032;-74
2022/03/06 09:06:08;;;;;;;20.42;11.35;;;;;;;1.57;73.38;102598.03;5072613;28;20052;-74
2022/03/06 09:08:33;;;;;;;21.75;10.15;;;;;;;1.65;72.74;102592.28;5072464;28;20028;-75
2022/03/06 09:10:58;;;;;;;21.08;10.65;;;;;;;1.64;73.27;102590.63;5071187;28;20066;-74
2022/03/06 09:13:24;;;;;;;21.30;11.43;;;;;;;1.74;73.37;102602.25;5072223;28;20028;-74
2022/03/06 09:15:49;;;;;;;23.67;10.27;;;;;;;1.82;72.39;102596.53;5072009;28;20024;-74
2022/03/06 09:18:15;;;;;;;19.10;11.70;;;;;;;1.82;71.49;102596.53;5072213;28;20025;-75
2022/03/06 09:20:40;;;;;;;20.80;10.85;;;;;;;1.81;72.28;102598.31;5070996;28;20033;-74
2022/03/06 09:23:07;;;;;;;22.85;11.00;;;;;;;1.89;72.09;102595.19;5072065;28;20123;-74
2022/03/06 09:25:33;;;;;;;22.15;10.93;;;;;;;1.93;73.19;102594.06;5071810;28;20522;-74
2022/03/06 09:28:02;;;;;;;20.45;11.45;;;;;;;2.02;71.92;102590.84;5071818;28;20131;-74
2022/03/06 09:30:29;;;;;;;19.90;11.05;;;;;;;2.11;73.22;102595.50;5071925;28;20082;-74
2022/03/06 09:32:54;;;;;;;23.30;10.88;;;;;;;2.10;71.33;102593.84;5071912;28;20069;-74
2022/03/06 09:35:19;;;;;;;19.70;10.63;;;;;;;2.17;70.58;102596.91;5070647;28;20442;-74
2022/03/06 09:37:45;;;;;;;20.95;10.40;;;;;;;2.11;70.69;102599.94;5071656;28;20553;-74
2022/03/06 09:40:11;;;;;;;18.10;10.57;;;;;;;2.10;71.28;102591.19;5072044;28;20086;-75
2022/03/06 09:42:37;;;;;;;23.52;12.15;;;;;;;2.31;71.34;102601.31;5053856;28;20048;-74
2022/03/06 09:45:08;;;;;;;20.13;9.85;;;;;;;2.33;70.59;102605.53;5071796;28;20044;-75
2022/03/06 09:47:34;;;;;;;17.63;10.57;;;;;;;2.40;71.63;102598.88;5070277;28;20035;-74
2022/03/06 09:50:01;;;;;;;20.33;10.93;;;;;;;2.48;70.96;102592.28;5071080;28;20361;-74
2022/03/06 09:52:27;;;;;;;23.27;11.05;;;;;;;2.64;70.51;102596.44;5069730;28;20089;-75
2022/03/06 09:54:52;;;;;;;20.20;10.27;;;;;;;2.70;68.85;102604.88;5071396;28;20036;-73
2022/03/06 09:57:19;;;;;;;21.33;11.02;;;;;;;2.71;68.85;102602.16;5070908;28;20145;-74
2022/03/06 09:59:45;;;;;;;21.65;11.32;;;;;;;2.75;68.06;102600.13;5071374;28;20033;-75
2022/03/06 10:02:12;;;;;;;20.52;10.80;;;;;;;2.71;69.26;102593.41;5071516;28;20043;-75
2022/03/06 10:04:38;;;;;;;18.52;9.90;;;;;;;2.78;68.66;102600.81;5070572;28;20546;-74
2022/03/06 10:07:06;;;;;;;19.08;10.70;;;;;;;2.90;68.52;102601.75;5070171;28;20028;-74
2022/03/06 10:09:34;;;;;;;18.77;10.23;;;;;;;2.89;68.76;102602.72;5071232;28;20028;-74
2022/03/06 10:12:00;;;;;;;15.35;8.90;;;;;;;2.93;68.59;102606.81;5070728;28;20028;-75
2022/03/06 10:14:41;;;;;;;21.00;11.35;;;;;;;2.95;69.90;102596.19;5067199;28;20017;-74
2022/03/06 10:17:13;;;;;;;19.10;10.65;;;;;;;3.07;68.19;102601.47;5066095;28;20036;-74
2022/03/06 10:19:59;;;;;;;16.92;10.05;;;;;;;3.07;67.95;102604.09;5066608;28;20071;-75
2022/03/06 10:22:30;;;;;;;23.30;13.80;;;;;;;3.12;67.40;102590.63;5066499;28;20043;-73
2022/03/06 10:25:05;;;;;;;21.83;11.52;;;;;;;3.20;67.33;102598.00;5064916;28;20024;-75
2022/03/06 10:27:53;;;;;;;14.80;8.88;;;;;;;3.26;67.96;102598.41;5067266;28;20032;-74
2022/03/06 10:30:26;;;;;;;20.73;10.63;;;;;;;3.33;68.21;102598.84;5067805;28;20103;-74
2022/03/06 10:32:52;;;;;;;20.83;9.60;;;;;;;3.49;68.21;102603.91;5070876;28;20078;-75
2022/03/06 10:35:17;;;;;;;16.58;9.13;;;;;;;3.56;65.89;102612.22;5070967;28;20032;-75
2022/03/06 10:37:42;;;;;;;18.63;10.27;;;;;;;3.59;66.26;102607.59;5070870;28;20064;-75
2022/03/06 10:40:14;;;;;;;19.55;10.27;;;;;;;3.62;64.83;102601.25;5070914;28;20159;-75
2022/03/06 10:42:40;;;;;;;17.08;9.15;;;;;;;3.59;66.12;102607.59;5070505;28;20123;-75
2022/03/06 10:45:06;;;;;;;15.90;9.20;;;;;;;3.74;66.07;102609.13;5070781;28;20029;-75
2022/03/06 10:47:47;;;;;;;19.45;10.82;;;;;;;3.79;65.00;102602.69;5069491;28;20039;-75
2022/03/06 10:50:12;;;;;;;20.10;9.52;;;;;;;3.86;63.71;102596.03;5070648;28;20488;-75
2022/03/06 10:52:41;;;;;;;16.17;8.98;;;;;;;4.03;64.11;102600.06;5070506;28;20043;-76
2022/03/06 10:55:07;;;;;;;16.75;9.52;;;;;;;3.99;63.16;102593.34;5070652;28;20067;-75
2022/03/06 10:57:33;;;;;;;17.98;9.50;;;;;;;4.04;64.10;102596.50;5070221;28;20074;-75
2022/03/06 10:59:59;;;;;;;18.45;10.13;;;;;;;4.07;62.70;102583.06;5070328;28;20032;-76
2022/03/06 11:02:26;;;;;;;18.25;9.00;;;;;;;4.16;63.06;102590.31;5070124;28;20099;-76
2022/03/06 11:04:53;;;;;;;18.75;9.30;;;;;;;4.16;61.21;102585.03;5069552;28;20484;-76
2022/03/06 11:07:19;;;;;;;16.25;9.07;;;;;;;4.25;62.73;102588.81;5070145;28;20028;-76